Time;durP1;ratioP1;P1;durP2;ratioP2;P2;SDS_P1;SDS_P2;PMS_P1;PMS_P2;Temp;Humidity;BMP_temperature;BMP_pressure;BME280_temperature;BME280_humidity;BME280_pressure;Samples;Min_cycle;Max_cycle;Signal;HPM_P1;HPM_P2
2022/08/07 00:01:47;;;;;;;8.40;7.70;;;;;;;19.69;68.66;96143.91;5113595;28;20039;-67
2022/08/07 00:04:14;;;;;;;10.07;8.27;;;;;;;19.62;69.52;96145.38;5112944;28;20408;-67
2022/08/07 00:06:41;;;;;;;8.85;7.93;;;;;;;19.61;69.26;96141.03;5113826;28;20058;-68
2022/08/07 00:09:08;;;;;;;10.57;7.78;;;;;;;19.56;70.00;96144.06;5113511;28;20051;-67
2022/08/07 00:11:36;;;;;;;8.32;7.55;;;;;;;19.52;70.06;96139.13;5113884;28;20400;-67
2022/08/07 00:14:03;;;;;;;9.02;8.20;;;;;;;19.51;71.11;96134.78;5113886;28;20044;-67
2022/08/07 00:16:32;;;;;;;8.23;7.40;;;;;;;19.53;69.96;96143.44;5114167;28;20108;-67
2022/08/07 00:18:59;;;;;;;8.00;7.30;;;;;;;19.51;70.05;96134.78;5113273;28;20134;-68
2022/08/07 00:21:26;;;;;;;8.55;7.65;;;;;;;19.48;69.77;96135.91;5113777;28;20409;-67
2022/08/07 00:23:54;;;;;;;9.43;7.65;;;;;;;19.51;70.08;96137.44;5113658;28;20044;-67
2022/08/07 00:26:21;;;;;;;9.00;8.10;;;;;;;19.52;70.14;96139.13;5113610;28;20075;-67
2022/08/07 00:28:48;;;;;;;9.02;8.15;;;;;;;19.48;69.77;96140.34;5112935;28;20378;-67
2022/08/07 00:31:15;;;;;;;8.73;7.93;;;;;;;19.48;69.92;96132.38;5113728;28;20047;-68
2022/08/07 00:33:44;;;;;;;9.68;7.90;;;;;;;19.49;69.30;96134.06;5113421;28;20043;-68
2022/08/07 00:36:11;;;;;;;8.63;7.93;;;;;;;19.42;69.35;96131.09;5113684;28;20047;-67
2022/08/07 00:38:39;;;;;;;9.15;7.80;;;;;;;19.36;69.70;96129.78;5113218;28;20043;-66
2022/08/07 00:41:07;;;;;;;11.30;7.57;;;;;;;19.33;69.64;96124.72;5113484;28;20039;-67
2022/08/07 00:43:34;;;;;;;8.70;7.90;;;;;;;19.29;69.74;96125.91;5113534;28;20043;-66
2022/08/07 00:46:02;;;;;;;8.95;7.90;;;;;;;19.18;70.46;96127.59;5113537;28;20044;-66
2022/08/07 00:48:29;;;;;;;9.30;8.27;;;;;;;19.18;70.62;96129.44;5112922;28;20101;-66
2022/08/07 00:50:58;;;;;;;8.88;8.07;;;;;;;19.11;70.43;96128.22;5113395;28;20557;-67
2022/08/07 00:53:26;;;;;;;8.88;7.97;;;;;;;19.07;70.42;96119.63;5113207;28;20100;-66
2022/08/07 00:55:53;;;;;;;9.70;8.23;;;;;;;19.03;70.53;96121.69;5113411;28;20484;-67
2022/08/07 00:58:21;;;;;;;8.85;7.95;;;;;;;18.97;71.13;96118.69;5113284;28;20090;-67
2022/08/07 01:00:49;;;;;;;9.57;8.68;;;;;;;18.92;70.99;96114.59;5112973;28;20160;-67
2022/08/07 01:03:18;;;;;;;9.90;7.93;;;;;;;18.92;71.78;96116.41;5113250;28;20048;-67
2022/08/07 01:05:47;;;;;;;9.43;8.55;;;;;;;18.90;71.51;96119.16;5112929;28;20052;-67
2022/08/07 01:08:15;;;;;;;9.35;8.43;;;;;;;18.90;71.53;96118.34;5112806;28;20079;-67
2022/08/07 01:10:43;;;;;;;11.30;8.38;;;;;;;18.91;71.53;96117.38;5113344;28;20047;-67
2022/08/07 01:13:10;;;;;;;9.57;8.63;;;;;;;18.89;72.00;96116.63;5112609;28;20488;-67
2022/08/07 01:15:38;;;;;;;9.27;8.48;;;;;;;18.87;71.88;96116.75;5114024;28;20400;-67
2022/08/07 01:18:06;;;;;;;8.77;7.97;;;;;;;18.85;71.57;96108.09;5116642;28;20035;-67
2022/08/07 01:20:38;;;;;;;9.45;8.55;;;;;;;18.87;71.26;96115.94;5117159;28;20040;-67
2022/08/07 01:23:07;;;;;;;9.15;8.35;;;;;;;18.87;71.37;96116.75;5117025;28;20089;-66
2022/08/07 01:25:35;;;;;;;9.57;8.68;;;;;;;18.83;71.12;96120.59;5116737;28;20480;-66
2022/08/07 01:28:03;;;;;;;9.35;8.45;;;;;;;18.79;71.36;96116.53;5116305;28;20051;-66
2022/08/07 01:30:31;;;;;;;9.60;8.55;;;;;;;18.77;71.56;96115.78;5116196;28;20123;-67
2022/08/07 01:32:58;;;;;;;11.20;8.65;;;;;;;18.75;72.06;96115.91;5116858;28;20083;-68
2022/08/07 01:35:26;;;;;;;13.85;8.05;;;;;;;18.75;71.97;96109.78;5116840;27;20126;-66
2022/08/07 01:37:53;;;;;;;9.95;8.73;;;;;;;18.72;71.69;96112.66;5116788;28;20047;-66
2022/08/07 01:40:25;;;;;;;9.57;8.52;;;;;;;18.66;71.75;96112.16;5116241;28;20094;-66
2022/08/07 01:42:52;;;;;;;9.95;9.05;;;;;;;18.66;71.50;96114.81;5116500;28;20380;-67
2022/08/07 01:45:20;;;;;;;10.35;9.35;;;;;;;18.61;71.77;96119.66;5116484;28;20039;-67
2022/08/07 01:47:48;;;;;;;10.90;9.13;;;;;;;18.58;72.17;96114.59;5116408;28;20500;-66
2022/08/07 01:50:16;;;;;;;10.30;8.40;;;;;;;18.62;72.05;96109.88;5116683;28;20048;-66
2022/08/07 01:52:45;;;;;;;10.73;8.75;;;;;;;18.58;71.91;96109.28;5116387;27;20378;-68
2022/08/07 01:55:13;;;;;;;8.70;7.90;;;;;;;18.54;72.22;96110.47;5116487;28;20079;-68
2022/08/07 01:57:43;;;;;;;9.50;8.52;;;;;;;18.52;72.81;96112.41;5116080;28;20138;-66
2022/08/07 02:00:12;;;;;;;11.85;9.52;;;;;;;18.55;73.81;96106.88;5104177;28;20055;-66
2022/08/07 02:02:44;;;;;;;10.95;9.85;;;;;;;18.57;74.28;96104.94;5116225;28;20096;-65
2022/08/07 02:05:18;;;;;;;12.65;9.82;;;;;;;18.62;74.98;96104.59;5115976;28;20073;-67
2022/08/07 02:07:50;;;;;;;11.57;10.48;;;;;;;18.70;75.27;96099.53;5115801;28;20047;-68
2022/08/07 02:10:18;;;;;;;11.60;10.20;;;;;;;18.76;75.33;96096.41;5116003;28;20048;-67
2022/08/07 02:12:49;;;;;;;12.57;9.30;;;;;;;18.87;74.86;96100.03;5116166;28;20044;-67
2022/08/07 02:15:19;;;;;;;;;;;;;;;18.97;74.88;96098.34;5116579;28;20075;-67
2022/08/07 02:17:48;;;;;;;10.60;9.60;;;;;;;19.00;74.63;96097.25;5115686;28;19919;-67
2022/08/07 02:20:16;;;;;;;11.70;10.50;;;;;;;19.08;74.44;96102.78;5115842;28;20054;-66
2022/08/07 02:22:45;;;;;;;12.05;9.43;;;;;;;19.11;74.35;96097.25;5115850;28;20043;-66
2022/08/07 02:25:15;;;;;;;10.80;9.70;;;;;;;19.16;74.06;96096.88;5115808;28;20087;-66
2022/08/07 02:27:44;;;;;;;13.65;9.25;;;;;;;19.23;73.84;96106.03;5114197;28;20048;-66
2022/08/07 02:30:13;;;;;;;12.00;10.80;;;;;;;19.30;73.45;96103.75;5115862;28;20054;-66
2022/08/07 02:32:41;;;;;;;10.52;9.43;;;;;;;19.35;73.07;96109.50;5115794;28;20043;-66
2022/08/07 02:35:10;;;;;;;10.95;9.90;;;;;;;19.32;73.15;96109.75;5115517;28;20047;-66
2022/08/07 02:37:41;;;;;;;10.20;9.20;;;;;;;19.37;72.82;96115.53;5115115;28;20048;-67
2022/08/07 02:40:10;;;;;;;10.32;9.32;;;;;;;19.38;72.60;96116.38;5095047;28;20127;-67
2022/08/07 02:42:37;;;;;;;12.45;9.75;;;;;;;19.41;72.04;96111.66;5095072;28;20087;-67
2022/08/07 02:45:08;;;;;;;11.15;9.50;;;;;;;19.45;71.90;96106.97;5095173;28;20063;-66
2022/08/07 02:47:36;;;;;;;11.27;8.63;;;;;;;19.50;72.08;96110.06;5094924;28;20402;-67
2022/08/07 02:50:05;;;;;;;13.13;8.95;;;;;;;19.53;71.75;96103.66;5110537;28;20104;-66
2022/08/07 02:52:36;;;;;;;10.65;9.18;;;;;;;19.51;71.19;96101.13;5115113;28;20043;-67
2022/08/07 02:55:04;;;;;;;;;;;;;;;19.52;71.42;96108.16;5115543;28;20134;-67
2022/08/07 02:57:36;;;;;;;10.05;9.05;;;;;;;19.48;71.48;96103.22;5115169;28;19920;-67
2022/08/07 03:00:05;;;;;;;9.90;8.90;;;;;;;19.50;71.54;96107.41;5114462;28;20137;-67
2022/08/07 03:02:33;;;;;;;10.45;9.23;;;;;;;19.52;71.29;96104.66;5115088;28;20437;-67
2022/08/07 03:05:03;;;;;;;10.52;9.52;;;;;;;19.44;71.21;96105.25;5114793;28;20098;-67
2022/08/07 03:07:31;;;;;;;11.13;9.27;;;;;;;19.44;71.08;96095.50;5114764;28;20051;-68
2022/08/07 03:09:59;;;;;;;14.48;9.48;;;;;;;19.48;71.16;96103.22;5114609;28;20123;-67
2022/08/07 03:12:27;;;;;;;9.52;8.63;;;;;;;19.49;70.86;96105.75;5114746;28;20485;-67
2022/08/07 03:14:55;;;;;;;10.40;9.25;;;;;;;19.50;70.72;96102.13;5114815;28;20048;-67
2022/08/07 03:17:23;;;;;;;14.23;9.48;;;;;;;19.50;70.52;96101.28;5114758;28;20134;-67
2022/08/07 03:19:51;;;;;;;15.40;9.23;;;;;;;19.56;70.96;96109.56;5114293;28;20093;-67
2022/08/07 03:22:21;;;;;;;9.95;8.95;;;;;;;19.59;70.27;96115.63;5114667;27;20120;-67
2022/08/07 03:24:48;;;;;;;9.75;8.80;;;;;;;19.66;70.18;96119.44;5114689;28;20048;-67
2022/08/07 03:27:17;;;;;;;10.55;9.55;;;;;;;19.75;70.09;96125.81;5114383;28;20044;-67
2022/08/07 03:29:47;;;;;;;10.23;9.23;;;;;;;19.81;69.64;96120.00;5113762;28;20047;-67
2022/08/07 03:32:16;;;;;;;11.60;10.40;;;;;;;19.92;69.49;96127.06;5114494;28;20125;-67
2022/08/07 03:34:46;;;;;;;11.77;9.05;;;;;;;20.00;69.43;96123.78;5114500;28;20055;-67
2022/08/07 03:37:18;;;;;;;12.32;9.25;;;;;;;20.04;69.14;96126.06;5114376;28;20107;-67
2022/08/07 03:39:48;;;;;;;10.88;9.75;;;;;;;20.10;69.14;96121.25;5114362;28;20087;-67
2022/08/07 03:42:18;;;;;;;11.20;9.87;;;;;;;20.14;68.98;96128.78;5113397;28;20051;-67
2022/08/07 03:44:45;;;;;;;10.18;9.15;;;;;;;20.19;68.83;96133.72;5114281;28;20276;-67
2022/08/07 03:47:13;;;;;;;11.73;9.50;;;;;;;20.23;68.70;96126.34;5114166;27;20059;-67
2022/08/07 03:49:44;;;;;;;10.25;9.05;;;;;;;20.23;68.84;96129.00;5113806;28;20051;-67
2022/08/07 03:52:12;;;;;;;12.15;9.57;;;;;;;20.31;68.73;96129.19;5114294;28;20483;-67
2022/08/07 03:54:39;;;;;;;10.23;9.15;;;;;;;20.39;68.61;96132.06;5113894;28;20059;-67
2022/08/07 03:57:09;;;;;;;10.75;9.40;;;;;;;20.49;67.87;96132.09;5114124;28;20043;-67
2022/08/07 03:59:37;;;;;;;10.52;9.18;;;;;;;20.63;67.33;96135.41;5113630;28;20085;-67
2022/08/07 04:02:05;;;;;;;9.95;8.95;;;;;;;20.99;66.11;96141.22;5114103;28;20101;-66
2022/08/07 04:04:32;;;;;;;10.48;9.32;;;;;;;21.50;64.92;96141.25;5113589;28;20054;-62
2022/08/07 04:06:59;;;;;;;10.80;8.73;;;;;;;22.08;63.91;96134.31;5113774;28;20054;-63
2022/08/07 04:09:29;;;;;;;10.00;8.82;;;;;;;22.59;61.88;96142.13;5113549;28;20100;-62
2022/08/07 04:11:57;;;;;;;14.50;8.07;;;;;;;23.03;60.72;96143.38;5114050;28;20059;-60
2022/08/07 04:14:27;;;;;;;8.82;7.93;;;;;;;23.46;58.99;96145.63;5113673;28;20043;-62
2022/08/07 04:16:55;;;;;;;8.55;7.75;;;;;;;23.96;57.70;96146.16;5113809;28;20128;-64
2022/08/07 04:19:24;;;;;;;7.78;7.07;;;;;;;24.47;56.51;96150.94;5112584;28;20046;-60
2022/08/07 04:21:52;;;;;;;8.05;7.25;;;;;;;24.93;54.31;96152.59;5113563;28;20488;-60
2022/08/07 04:24:20;;;;;;;8.30;7.50;;;;;;;25.38;52.76;96161.34;5113915;28;20079;-64
2022/08/07 04:26:48;;;;;;;8.38;6.78;;;;;;;25.91;53.67;96163.88;5113555;28;20041;-60
2022/08/07 04:29:15;;;;;;;8.05;7.07;;;;;;;26.38;52.20;96150.88;5113189;28;20088;-63
2022/08/07 04:31:44;;;;;;;10.32;7.25;;;;;;;26.73;51.07;96162.25;5113199;28;20047;-62
2022/08/07 04:34:12;;;;;;;9.13;6.53;;;;;;;27.09;50.52;96165.56;5113255;28;20047;-61
2022/08/07 04:36:41;;;;;;;8.13;7.30;;;;;;;27.44;49.90;96158.06;5112266;28;20124;-63
2022/08/07 04:39:10;;;;;;;7.38;6.68;;;;;;;27.71;48.92;96158.63;5113413;28;20050;-61
2022/08/07 04:41:37;;;;;;;7.75;6.75;;;;;;;27.78;45.64;96156.06;5113419;28;20044;-63
2022/08/07 04:44:05;;;;;;;7.55;6.85;;;;;;;27.59;46.96;96160.84;5112989;28;20100;-64
2022/08/07 04:46:40;;;;;;;9.68;7.00;;;;;;;27.86;46.02;96163.25;5111499;28;20443;-62
2022/08/07 04:49:17;;;;;;;7.80;6.97;;;;;;;27.59;46.46;96158.16;5112014;28;20044;-65
2022/08/07 04:51:54;;;;;;;8.13;6.97;;;;;;;27.70;47.18;96166.88;5116024;28;20052;-61
2022/08/07 04:54:30;;;;;;;7.75;6.43;;;;;;;27.58;46.22;96172.63;5117085;28;20172;-65
2022/08/07 04:57:06;;;;;;;10.00;7.30;;;;;;;27.42;46.92;96164.63;5117161;28;20055;-60
2022/08/07 04:59:41;;;;;;;10.80;7.68;;;;;;;27.48;46.47;96178.19;5116069;28;20082;-61
2022/08/07 05:02:13;;;;;;;7.97;7.20;;;;;;;27.60;47.49;96177.81;5116482;28;20050;-61
2022/08/07 05:04:49;;;;;;;8.02;7.15;;;;;;;27.96;44.89;96171.09;5115820;28;20554;-61
2022/08/07 05:07:19;;;;;;;8.27;7.07;;;;;;;28.30;44.93;96174.41;5117157;28;20097;-62
2022/08/07 05:09:56;;;;;;;8.20;6.65;;;;;;;28.37;43.68;96173.53;5117185;28;20492;-62
2022/08/07 05:12:32;;;;;;;8.15;7.38;;;;;;;28.24;44.24;96181.31;5116897;27;20201;-63
2022/08/07 05:15:15;;;;;;;7.82;7.03;;;;;;;27.99;44.19;96190.38;5117248;28;20438;-63
2022/08/07 05:17:46;;;;;;;6.50;6.00;;;;;;;27.95;43.96;96180.16;5117059;28;20051;-65
2022/08/07 05:20:22;;;;;;;7.28;6.57;;;;;;;27.95;44.39;96185.53;5116472;28;20100;-63
2022/08/07 05:22:52;;;;;;;8.82;6.35;;;;;;;28.04;45.04;96194.38;5137576;27;20043;-60
2022/08/07 05:25:22;;;;;;;10.73;6.47;;;;;;;28.17;43.61;96189.25;5137543;27;20047;-60
2022/08/07 05:27:51;;;;;;;7.72;6.93;;;;;;;28.41;43.61;96189.28;5137291;27;20133;-62
2022/08/07 05:30:20;;;;;;;8.02;6.00;;;;;;;28.74;43.65;96191.69;5137289;27;20050;-62
2022/08/07 05:32:49;;;;;;;7.60;6.40;;;;;;;28.95;43.13;96199.09;5116437;27;20525;-63
2022/08/07 05:35:18;;;;;;;7.45;6.75;;;;;;;28.76;42.23;96205.81;5116798;28;20054;-65
2022/08/07 05:37:46;;;;;;;6.78;6.18;;;;;;;28.45;43.61;96212.97;5116607;28;20465;-64
2022/08/07 05:40:16;;;;;;;10.63;6.82;;;;;;;28.30;44.01;96212.91;5116629;28;20134;-66
2022/08/07 05:42:44;;;;;;;10.52;6.88;;;;;;;28.43;44.23;96211.44;5116376;28;20123;-62
2022/08/07 05:45:12;;;;;;;8.00;6.90;;;;;;;28.55;44.11;96206.47;5116774;27;20404;-63
2022/08/07 05:47:40;;;;;;;7.18;6.47;;;;;;;28.79;43.16;96201.91;5116551;28;20048;-64
2022/08/07 05:50:09;;;;;;;7.25;6.55;;;;;;;28.99;42.50;96203.09;5116336;28;20382;-63
2022/08/07 05:52:37;;;;;;;9.70;7.00;;;;;;;29.07;42.11;96209.44;5116466;28;20054;-63
2022/08/07 05:55:06;;;;;;;7.88;5.85;;;;;;;28.99;42.23;96210.34;5116422;28;20412;-66
2022/08/07 05:57:37;;;;;;;7.38;6.45;;;;;;;28.70;43.40;96212.75;5116343;28;20477;-65
2022/08/07 06:00:08;;;;;;;7.72;6.72;;;;;;;28.80;42.35;96217.88;5115710;27;20542;-64
2022/08/07 06:02:37;;;;;;;9.27;6.28;;;;;;;28.64;42.17;96221.53;5114989;28;20101;-61
2022/08/07 06:05:07;;;;;;;7.22;6.05;;;;;;;28.64;42.41;96221.53;5116023;28;20447;-61
2022/08/07 06:07:37;;;;;;;6.85;5.95;;;;;;;28.60;42.00;96218.38;5116019;28;20051;-62
2022/08/07 06:10:06;;;;;;;8.88;6.30;;;;;;;28.49;43.11;96226.88;5116086;28;20166;-69
2022/08/07 06:12:34;;;;;;;8.80;6.32;;;;;;;28.50;42.92;96223.16;5114958;28;20051;-69
2022/08/07 06:15:02;;;;;;;8.20;6.50;;;;;;;28.53;42.70;96230.03;5115908;28;20116;-69
2022/08/07 06:17:31;;;;;;;7.18;6.05;;;;;;;28.24;43.00;96222.47;5116081;28;20052;-67
2022/08/07 06:19:59;;;;;;;7.28;5.97;;;;;;;28.75;42.21;96222.97;5116055;28;20043;-68
2022/08/07 06:22:29;;;;;;;7.00;6.40;;;;;;;28.89;41.34;96224.00;5115398;28;20074;-67
2022/08/07 06:24:59;;;;;;;7.00;6.35;;;;;;;28.75;42.10;96207.66;5115525;28;20500;-68
2022/08/07 06:27:27;;;;;;;6.70;6.00;;;;;;;28.42;42.42;96212.47;5115858;27;20431;-69
2022/08/07 06:29:54;;;;;;;6.75;5.93;;;;;;;28.48;43.74;96219.81;5115683;28;20530;-67
2022/08/07 06:32:22;;;;;;;9.23;6.22;;;;;;;28.88;41.69;96208.88;5115094;28;20556;-68
2022/08/07 06:34:49;;;;;;;9.05;5.93;;;;;;;28.87;40.77;96208.03;5115709;27;20120;-69
2022/08/07 06:37:17;;;;;;;8.65;5.82;;;;;;;29.00;40.68;96214.69;5115735;28;20476;-68
2022/08/07 06:39:44;;;;;;;6.75;5.97;;;;;;;29.10;40.01;96217.09;5115594;28;20123;-67
2022/08/07 06:42:19;;;;;;;6.82;6.13;;;;;;;29.49;40.12;96220.56;5115023;28;20075;-66
2022/08/07 06:44:49;;;;;;;6.32;5.72;;;;;;;29.10;39.57;96227.88;5095018;28;20044;-67
2022/08/07 06:47:16;;;;;;;;;;;;;;;29.09;40.59;96221.69;5095516;28;20109;-68
2022/08/07 06:49:45;;;;;;;7.38;5.68;;;;;;;29.05;40.80;96224.91;5095097;28;19927;-67
2022/08/07 06:52:15;;;;;;;6.50;5.38;;;;;;;29.26;39.36;96225.03;5094859;28;20109;-67
2022/08/07 06:54:44;;;;;;;6.68;5.30;;;;;;;29.22;39.22;96226.41;5094991;28;20101;-67
2022/08/07 06:57:13;;;;;;;6.63;5.78;;;;;;;29.58;38.66;96224.03;5095027;28;20044;-70
2022/08/07 06:59:42;;;;;;;7.05;5.00;;;;;;;29.28;38.68;96235.59;5094779;28;20044;-68
2022/08/07 07:02:17;;;;;;;5.85;5.22;;;;;;;29.11;39.34;96234.94;5094742;28;20040;-64
2022/08/07 07:04:45;;;;;;;5.90;5.40;;;;;;;29.14;39.01;96232.72;5094546;28;20131;-65
2022/08/07 07:07:13;;;;;;;5.60;5.07;;;;;;;29.32;38.29;96223.47;5094483;28;20087;-64
2022/08/07 07:09:46;;;;;;;6.30;5.25;;;;;;;29.91;38.33;96245.19;5094745;28;20048;-65
2022/08/07 07:12:40;;;;;;;8.07;5.28;;;;;;;30.14;37.48;96238.81;5094612;28;20079;-65
2022/08/07 07:15:13;;;;;;;5.88;5.38;;;;;;;30.35;36.87;96235.34;5094182;28;20481;-65
2022/08/07 07:17:46;;;;;;;7.43;5.15;;;;;;;30.69;37.30;96238.34;5094519;28;20048;-66
2022/08/07 07:20:17;;;;;;;6.30;5.70;;;;;;;30.32;37.29;96242.97;5094507;28;20094;-65
2022/08/07 07:22:47;;;;;;;8.18;5.03;;;;;;;30.05;38.08;96246.19;5094495;28;20044;-65
2022/08/07 07:25:17;;;;;;;7.88;5.53;;;;;;;29.14;38.57;96245.34;5094553;28;20048;-64
2022/08/07 07:27:51;;;;;;;5.82;5.32;;;;;;;28.54;39.37;96247.84;5094184;28;20055;-69
2022/08/07 07:30:22;;;;;;;6.00;5.40;;;;;;;27.94;41.28;96251.88;5094263;28;20397;-67
2022/08/07 07:32:51;;;;;;;;;;;;;;;27.92;41.48;96248.53;5094733;28;20500;-67
2022/08/07 07:35:19;;;;;;;6.60;5.65;;;;;;;28.35;41.36;96253.50;5094320;28;19989;-66
2022/08/07 07:37:50;;;;;;;5.50;5.00;;;;;;;28.36;40.00;96247.13;5094155;28;20043;-65
2022/08/07 07:40:18;;;;;;;;;;;;;;;28.39;40.48;96243.25;5094594;28;20063;-69
2022/08/07 07:42:50;;;;;;;5.43;4.93;;;;;;;28.59;40.36;96245.47;5094044;28;19952;-68
2022/08/07 07:45:20;;;;;;;5.82;5.00;;;;;;;28.80;39.43;96244.78;5094120;28;20044;-68
2022/08/07 07:47:50;;;;;;;7.50;5.20;;;;;;;29.00;39.13;96247.84;5093779;28;20056;-66
2022/08/07 07:50:20;;;;;;;5.13;4.53;;;;;;;29.24;38.31;96243.22;5093875;28;20381;-68
2022/08/07 07:52:48;;;;;;;8.35;5.15;;;;;;;29.20;37.97;96251.84;5093878;28;20063;-66
2022/08/07 07:55:19;;;;;;;5.40;4.90;;;;;;;29.23;37.46;96246.94;5093754;28;20508;-69
2022/08/07 07:57:49;;;;;;;8.02;5.22;;;;;;;29.12;37.87;96256.31;5093764;28;20040;-66
2022/08/07 08:00:18;;;;;;;5.40;4.85;;;;;;;29.04;37.60;96248.28;5093644;28;20485;-66
2022/08/07 08:02:48;;;;;;;5.30;4.80;;;;;;;29.48;36.72;96245.84;5093682;28;20055;-66
2022/08/07 08:05:16;;;;;;;;;;;;;;;29.52;37.65;96253.38;5093351;28;20048;-67
2022/08/07 08:07:45;;;;;;;4.80;4.32;;;;;;;29.29;37.32;96247.22;5093406;28;20627;-66
2022/08/07 08:10:14;;;;;;;5.30;4.80;;;;;;;28.78;38.86;96241.44;5093545;28;20048;-67
2022/08/07 08:12:42;;;;;;;6.82;4.93;;;;;;;28.78;38.68;96238.75;5093570;28;20048;-67
2022/08/07 08:15:11;;;;;;;7.28;5.47;;;;;;;28.82;38.73;96244.59;5093506;28;20044;-66
2022/08/07 08:17:42;;;;;;;9.65;5.30;;;;;;;28.79;38.82;96244.94;5093467;28;20469;-66
2022/08/07 08:20:11;;;;;;;6.22;4.82;;;;;;;28.78;38.23;96240.59;5093443;28;20048;-64
2022/08/07 08:28:17;;;;;;;6.78;5.20;;;;;;;29.26;37.46;96251.13;5093381;28;20055;-67
2022/08/07 08:30:47;;;;;;;4.97;4.57;;;;;;;29.61;36.68;96247.91;5093358;28;20048;-67
2022/08/07 08:33:18;;;;;;;7.82;5.15;;;;;;;29.50;36.35;96233.84;5093288;28;20131;-65
2022/08/07 08:35:50;;;;;;;5.82;4.50;;;;;;;29.93;36.89;96242.28;5093266;28;20045;-68
2022/08/07 08:38:20;;;;;;;6.88;4.63;;;;;;;30.65;35.68;96239.78;5093232;28;20126;-65
2022/08/07 08:40:52;;;;;;;;;;;;;;;31.00;34.59;96241.75;5093632;28;20084;-69
2022/08/07 08:43:28;;;;;;;10.02;4.72;;;;;;;30.84;34.37;96232.91;5093316;28;19966;-67
2022/08/07 08:46:06;;;;;;;4.75;4.35;;;;;;;30.66;33.81;96236.03;5093102;28;20102;-67
2022/08/07 08:48:43;;;;;;;6.55;3.88;;;;;;;30.97;33.20;96239.44;5093036;28;20097;-65
2022/08/07 08:51:18;;;;;;;4.95;4.38;;;;;;;31.07;32.55;96225.59;5093028;28;20098;-66
2022/08/07 08:53:52;;;;;;;5.32;4.43;;;;;;;30.94;32.66;96232.56;5093040;28;20044;-65
2022/08/07 08:56:26;;;;;;;4.40;4.00;;;;;;;30.81;33.44;96227.06;5092951;28;20101;-68
2022/08/07 08:59:02;;;;;;;4.90;3.67;;;;;;;30.74;33.11;96216.19;5092971;28;20413;-66
2022/08/07 09:01:44;;;;;;;8.85;4.70;;;;;;;31.09;32.64;96231.66;5093090;28;20048;-65
2022/08/07 09:04:23;;;;;;;4.47;4.07;;;;;;;31.49;31.53;96220.28;5092713;28;20084;-65
2022/08/07 09:06:58;;;;;;;4.03;3.72;;;;;;;31.74;30.92;96217.06;5092792;28;20052;-67
2022/08/07 09:09:48;;;;;;;3.95;3.45;;;;;;;31.83;30.47;96220.44;5092837;28;20052;-64
2022/08/07 09:12:33;;;;;;;4.10;3.72;;;;;;;31.28;31.06;96217.44;5093014;28;20105;-69
2022/08/07 09:15:13;;;;;;;6.10;3.65;;;;;;;31.43;31.19;96215.69;5093008;28;20083;-67
2022/08/07 09:17:48;;;;;;;3.78;3.40;;;;;;;31.63;30.75;96216.63;5093037;28;20123;-65
2022/08/07 09:20:27;;;;;;;6.13;3.42;;;;;;;31.71;30.55;96212.91;5092894;28;20044;-67
2022/08/07 09:23:03;;;;;;;3.92;3.63;;;;;;;31.73;30.30;96223.53;5092778;28;20118;-66
2022/08/07 09:25:39;;;;;;;5.22;2.90;;;;;;;31.60;30.03;96219.72;5092879;28;20550;-68
2022/08/07 09:28:08;;;;;;;4.03;3.63;;;;;;;31.82;30.72;96214.22;5092563;28;20052;-65
2022/08/07 09:30:56;;;;;;;7.65;3.40;;;;;;;31.78;30.19;96221.03;5092645;28;20048;-66
2022/08/07 09:33:42;;;;;;;5.10;3.78;;;;;;;31.70;29.13;96215.81;5092775;28;20056;-68
2022/08/07 09:36:15;;;;;;;6.22;3.50;;;;;;;31.80;29.57;96201.91;5092682;28;20040;-66
2022/08/07 09:38:49;;;;;;;3.55;3.17;;;;;;;31.96;29.36;96201.59;5096249;28;20084;-65
2022/08/07 09:41:29;;;;;;;6.25;3.58;;;;;;;32.11;28.99;96219.56;5096294;28;20105;-68
2022/08/07 09:44:04;;;;;;;4.53;3.70;;;;;;;31.77;29.58;96204.00;5096265;28;20052;-65
2022/08/07 09:46:44;;;;;;;4.00;3.70;;;;;;;32.18;28.70;96193.34;5096337;28;20044;-67
2022/08/07 09:49:27;;;;;;;4.95;4.55;;;;;;;32.12;28.84;96199.56;5096133;28;20044;-67
2022/08/07 09:52:05;;;;;;;5.20;3.88;;;;;;;31.92;29.49;96200.34;5096092;28;20059;-68
2022/08/07 09:54:39;;;;;;;6.93;4.40;;;;;;;31.95;29.13;96193.69;5096157;28;20090;-65
2022/08/07 09:57:40;;;;;;;6.05;4.82;;;;;;;31.54;29.50;96208.88;5095946;28;20067;-65
2022/08/07 10:00:11;;;;;;;7.57;4.80;;;;;;;31.40;30.17;96200.72;5095822;28;20055;-67
2022/08/07 10:02:58;;;;;;;6.30;4.30;;;;;;;31.55;29.80;96195.19;5095963;28;20047;-66
2022/08/07 10:05:55;;;;;;;5.00;4.60;;;;;;;31.54;29.56;96188.09;5095523;28;20404;-68
2022/08/07 10:08:44;;;;;;;5.78;5.18;;;;;;;31.87;30.07;96197.38;5095754;28;20122;-67
2022/08/07 10:11:21;;;;;;;4.90;4.40;;;;;;;31.81;30.31;96180.09;5095734;28;20059;-68
2022/08/07 10:13:59;;;;;;;5.15;4.75;;;;;;;31.48;30.82;96181.63;5095597;28;20090;-66
2022/08/07 10:16:57;;;;;;;6.55;4.78;;;;;;;31.18;30.87;96183.72;5095760;28;20055;-68
2022/08/07 10:19:47;;;;;;;6.15;4.63;;;;;;;31.05;31.75;96169.09;5095550;28;20109;-66
2022/08/07 10:22:33;;;;;;;5.35;4.85;;;;;;;30.91;31.69;96178.16;5095524;28;20542;-65
2022/08/07 10:25:16;;;;;;;6.55;4.93;;;;;;;30.75;32.62;96180.06;5095538;28;20051;-66
2022/08/07 10:28:03;;;;;;;5.88;5.10;;;;;;;30.47;32.61;96181.72;5095374;28;20511;-67
2022/08/07 10:30:43;;;;;;;9.88;5.40;;;;;;;30.25;33.43;96181.72;5095395;28;20127;-66
2022/08/07 10:33:39;;;;;;;7.97;5.63;;;;;;;30.60;33.07;96178.31;5095300;28;20040;-65
2022/08/07 10:36:20;;;;;;;6.53;5.15;;;;;;;31.29;31.94;96177.75;5095304;28;20044;-65
2022/08/07 10:39:00;;;;;;;10.77;5.38;;;;;;;31.14;32.33;96183.28;5095185;28;20093;-66
2022/08/07 10:41:33;;;;;;;9.43;5.15;;;;;;;31.23;31.49;96178.56;5095238;28;20058;-65
2022/08/07 10:44:10;;;;;;;5.90;4.63;;;;;;;31.47;30.64;96174.56;5095180;28;20080;-66
2022/08/07 10:46:42;;;;;;;8.90;5.15;;;;;;;31.70;30.95;96186.09;5095083;28;20150;-65
2022/08/07 10:49:21;;;;;;;5.28;4.20;;;;;;;31.49;30.73;96183.31;5094175;28;20051;-67
2022/08/07 10:51:55;;;;;;;5.95;4.63;;;;;;;31.38;30.96;96176.59;5094973;28;20076;-66
2022/08/07 10:54:32;;;;;;;8.65;4.80;;;;;;;31.21;31.30;96194.94;5094877;28;20457;-66
2022/08/07 10:57:11;;;;;;;8.30;5.00;;;;;;;31.07;31.46;96185.09;5094854;28;20044;-68
2022/08/07 11:00:04;;;;;;;6.57;4.97;;;;;;;30.86;32.04;96186.84;5095009;28;20056;-65
2022/08/07 11:02:40;;;;;;;5.03;4.63;;;;;;;30.93;31.90;96185.00;5094882;28;20056;-66
2022/08/07 11:05:28;;;;;;;10.38;4.80;;;;;;;31.01;32.20;96178.63;5094522;28;20052;-66
2022/08/07 11:08:06;;;;;;;7.00;5.13;;;;;;;31.02;32.33;96186.53;5094828;28;20048;-65
2022/08/07 11:10:42;;;;;;;7.95;5.70;;;;;;;31.49;32.18;96177.06;5094651;28;20081;-65
2022/08/07 11:13:16;;;;;;;7.05;5.55;;;;;;;31.95;31.12;96177.47;5094671;28;20519;-64
2022/08/07 11:15:48;;;;;;;5.63;5.20;;;;;;;31.98;31.09;96193.28;5094615;28;20051;-65
2022/08/07 11:18:21;;;;;;;6.03;5.28;;;;;;;31.30;31.08;96171.31;5094615;28;20172;-65
2022/08/07 11:20:55;;;;;;;7.47;5.13;;;;;;;31.59;31.54;96184.78;5094389;28;20055;-68
2022/08/07 11:23:31;;;;;;;5.40;4.90;;;;;;;31.90;30.99;96184.28;5094530;28;20047;-66
2022/08/07 11:26:08;;;;;;;10.05;5.40;;;;;;;31.49;30.86;96177.06;5094527;28;20443;-66
2022/08/07 11:28:43;;;;;;;5.70;5.20;;;;;;;31.08;31.46;96186.75;5094278;28;20044;-64
2022/08/07 11:31:22;;;;;;;5.70;4.95;;;;;;;30.99;32.15;96170.72;5094333;28;20127;-66
2022/08/07 11:33:54;;;;;;;7.95;5.70;;;;;;;30.97;32.13;96182.75;5094165;28;20075;-66
2022/08/07 11:36:39;;;;;;;7.70;5.97;;;;;;;30.49;34.48;96211.19;5094061;28;20044;-67
2022/08/07 11:39:19;;;;;;;7.30;5.45;;;;;;;29.91;36.07;96212.03;5094001;28;20048;-64
2022/08/07 11:41:57;;;;;;;9.48;5.35;;;;;;;29.49;36.52;96213.31;5093960;28;20044;-64
2022/08/07 11:44:36;;;;;;;10.38;5.20;;;;;;;28.76;37.91;96201.28;5094049;28;20075;-65
2022/08/07 11:47:13;;;;;;;8.15;5.55;;;;;;;28.28;40.29;96230.16;5093891;28;20481;-66
2022/08/07 11:50:07;;;;;;;6.47;5.35;;;;;;;27.91;42.06;96235.25;5093997;28;20044;-66
2022/08/07 11:52:52;;;;;;;6.00;5.20;;;;;;;27.75;42.84;96234.31;5087560;28;20056;-67
2022/08/07 11:55:34;;;;;;;9.63;5.20;;;;;;;27.89;41.47;96230.06;5093920;28;20067;-64
2022/08/07 11:58:14;;;;;;;9.18;5.25;;;;;;;27.94;41.19;96221.47;5093662;28;20048;-64
2022/08/07 12:00:56;;;;;;;5.38;4.88;;;;;;;28.09;41.04;96198.22;5093277;28;20047;-67
2022/08/07 12:03:57;;;;;;;5.43;4.50;;;;;;;28.52;39.93;96202.31;5093573;28;20133;-65